Heidrick, Kentucky
Current Conditions -  °F | °C
As of 5:53 PM on Tuesday 25 Nov 2014 (Local Time) from KLOZ Reporting Station
Clear Clear  
Wind Chill: 48°   Ceiling: Unl
Heat Index: 48°   Visibility: 10mi
Dew Point: 28°   Wind: 3mph
Humidity: 46%   Direction: 340°NNW
Pressure: 30.08"   Gusts: NA
Location:  36.88°N, 83.88°W
Report Text: KLOZ 252253Z AUTO 34003KT 10SM CLR 09/M02 A3008 RMK AO2 SLP189 T00891022
Loading
Personal Weather Stations






























Interactive Weather Map New forecast layout! Learn more

10-Day Weather Forecast

Advertisements
Track Severe Weather on mobile